createdAt,value
2023-10-12T00:02:23.717Z,57.40
2023-10-12T00:05:02.590Z,57.30
2023-10-12T00:07:36.893Z,57.40
2023-10-12T00:10:22.259Z,57.30
2023-10-12T00:12:54.741Z,57.30
2023-10-12T00:15:30.611Z,57.40
2023-10-12T00:18:00.743Z,57.30
2023-10-12T00:20:36.709Z,57.30
2023-10-12T00:23:13.064Z,57.30
2023-10-12T00:25:49.869Z,57.30
2023-10-12T00:28:20.541Z,57.30
2023-10-12T00:30:51.154Z,57.30
2023-10-12T00:33:20.156Z,57.30
2023-10-12T00:35:51.774Z,57.30
2023-10-12T00:38:24.630Z,57.30
2023-10-12T00:40:58.733Z,57.30
2023-10-12T00:43:33.302Z,57.30
2023-10-12T00:46:13.954Z,57.30
2023-10-12T00:48:49.011Z,57.30
2023-10-12T00:51:18.591Z,57.10
2023-10-12T00:53:57.028Z,57.20
2023-10-12T00:56:27.290Z,57.20
2023-10-12T00:58:56.839Z,57.20
2023-10-12T01:01:25.757Z,57.20
2023-10-12T01:03:54.542Z,57.20
2023-10-12T01:06:32.029Z,57.80
2023-10-12T01:09:01.652Z,57.20
2023-10-12T01:11:35.510Z,57.30
2023-10-12T01:14:11.108Z,57.30
2023-10-12T01:16:53.397Z,57.30
2023-10-12T01:19:24.763Z,57.20
2023-10-12T01:21:57.120Z,57.30
2023-10-12T01:24:31.569Z,57.30
2023-10-12T01:27:00.742Z,57.10
2023-10-12T01:29:32.314Z,57.20
2023-10-12T01:32:22.566Z,57.20
2023-10-12T01:34:54.382Z,57.40
2023-10-12T01:37:25.777Z,57.30
2023-10-12T01:40:11.876Z,57.30
2023-10-12T01:42:51.430Z,57.30
2023-10-12T01:45:32.803Z,57.20
2023-10-12T01:48:09.013Z,57.20
2023-10-12T01:50:39.384Z,57.30
2023-10-12T01:53:23.420Z,57.30
2023-10-12T01:55:53.209Z,57.30
2023-10-12T01:58:24.500Z,57.30
2023-10-12T02:00:53.850Z,57.30
2023-10-12T02:03:32.524Z,57.40
2023-10-12T02:06:01.071Z,57.40
2023-10-12T02:08:35.707Z,57.40
2023-10-12T02:11:11.829Z,57.40
2023-10-12T02:13:43.000Z,57.50
2023-10-12T02:16:14.071Z,57.50
2023-10-12T02:18:44.390Z,57.50
2023-10-12T02:21:13.411Z,57.40
2023-10-12T02:23:56.232Z,57.50
2023-10-12T02:26:35.768Z,57.50
2023-10-12T02:29:13.637Z,57.50
2023-10-12T02:31:55.255Z,57.40
2023-10-12T02:34:27.119Z,57.30
2023-10-12T02:37:17.548Z,57.40
2023-10-12T02:39:48.379Z,57.40
2023-10-12T02:42:23.772Z,57.20
2023-10-12T02:45:10.162Z,57.30
2023-10-12T02:47:42.210Z,57.30
2023-10-12T02:50:25.646Z,57.30
2023-10-12T02:52:54.135Z,58.00
2023-10-12T02:55:41.897Z,57.30
2023-10-12T02:58:20.313Z,57.40
2023-10-12T03:00:56.645Z,57.20
2023-10-12T03:03:29.131Z,57.30
2023-10-12T03:06:08.569Z,57.20
2023-10-12T03:08:49.191Z,57.20
2023-10-12T03:11:21.466Z,57.20
2023-10-12T03:14:01.207Z,57.30
2023-10-12T03:16:34.974Z,57.20
2023-10-12T03:19:18.690Z,57.20
2023-10-12T03:21:49.336Z,57.30
2023-10-12T03:24:18.214Z,57.20
2023-10-12T03:26:50.639Z,57.30
2023-10-12T03:29:21.551Z,57.30
2023-10-12T03:31:57.801Z,57.20
2023-10-12T03:34:37.011Z,57.20
2023-10-12T03:37:07.413Z,57.40
2023-10-12T03:39:59.779Z,57.30
2023-10-12T03:42:43.029Z,57.40
2023-10-12T03:45:25.198Z,57.40
2023-10-12T03:48:04.965Z,57.30
2023-10-12T03:50:52.732Z,57.30
2023-10-12T03:53:27.877Z,57.30
2023-10-12T03:55:59.293Z,57.30
2023-10-12T03:58:29.501Z,57.30
2023-10-12T04:01:14.004Z,57.30
2023-10-12T04:03:45.370Z,57.30
2023-10-12T04:06:17.202Z,57.20
2023-10-12T04:08:52.678Z,57.20
2023-10-12T04:11:53.203Z,57.20
2023-10-12T04:14:36.553Z,57.20
2023-10-12T04:17:10.498Z,57.20
2023-10-12T04:19:43.577Z,57.20
2023-10-12T04:22:26.362Z,57.20
2023-10-12T04:24:55.758Z,57.20
2023-10-12T04:27:39.947Z,57.20
2023-10-12T04:30:28.441Z,57.20
2023-10-12T04:33:15.883Z,57.20
2023-10-12T04:36:11.002Z,57.20
2023-10-12T04:38:59.828Z,57.20
2023-10-12T04:41:39.482Z,57.20
2023-10-12T04:44:34.069Z,57.20
2023-10-12T04:47:06.986Z,57.20
2023-10-12T04:49:53.951Z,57.30
2023-10-12T04:52:34.005Z,57.30
2023-10-12T04:55:18.842Z,57.30
2023-10-12T04:58:07.473Z,57.30
2023-10-12T05:00:49.452Z,57.30
2023-10-12T05:03:35.621Z,57.30
2023-10-12T05:06:09.768Z,57.30
2023-10-12T05:08:38.470Z,57.40
2023-10-12T05:11:10.203Z,57.30
2023-10-12T05:13:45.230Z,57.40
2023-10-12T05:16:15.867Z,57.40
2023-10-12T05:18:48.754Z,57.30
2023-10-12T05:21:17.285Z,57.30
2023-10-12T05:23:45.774Z,57.40
2023-10-12T05:26:15.442Z,57.40
2023-10-12T05:29:03.366Z,57.40
2023-10-12T05:31:40.619Z,57.50
2023-10-12T05:34:27.791Z,57.50
2023-10-12T05:36:55.929Z,57.40
2023-10-12T05:39:24.069Z,57.40
2023-10-12T05:41:57.941Z,57.40
2023-10-12T05:44:27.970Z,57.50
2023-10-12T05:47:01.586Z,57.50
2023-10-12T05:49:36.708Z,57.40
2023-10-12T05:52:07.393Z,57.30
2023-10-12T05:54:36.282Z,57.30
2023-10-12T05:57:20.158Z,57.20
2023-10-12T05:59:48.953Z,57.20
2023-10-12T06:02:19.273Z,57.10
2023-10-12T06:04:49.166Z,57.30
2023-10-12T06:07:17.473Z,57.20
2023-10-12T06:09:45.600Z,57.00
2023-10-12T06:12:19.065Z,57.10
2023-10-12T06:14:54.398Z,57.10
2023-10-12T06:17:31.990Z,57.10
2023-10-12T06:20:11.952Z,57.00
2023-10-12T06:22:40.268Z,57.10
2023-10-12T06:25:12.811Z,57.00
2023-10-12T06:27:41.118Z,57.00
2023-10-12T06:30:19.818Z,57.10
2023-10-12T06:32:49.955Z,57.00
2023-10-12T06:35:27.330Z,56.90
2023-10-12T06:38:18.015Z,56.90
2023-10-12T06:40:59.954Z,56.90
2023-10-12T06:43:45.282Z,56.80
2023-10-12T06:46:17.069Z,56.80
2023-10-12T06:48:48.475Z,56.80
2023-10-12T06:51:18.040Z,56.80
2023-10-12T06:53:53.432Z,56.80
2023-10-12T06:56:28.149Z,56.70
2023-10-12T06:59:10.368Z,56.80
2023-10-12T07:01:52.446Z,56.70
2023-10-12T07:04:26.989Z,56.70
2023-10-12T07:07:01.743Z,56.60
2023-10-12T07:09:40.736Z,56.60
2023-10-12T07:12:11.687Z,56.60
2023-10-12T07:14:44.421Z,56.60
2023-10-12T07:17:12.532Z,56.70
2023-10-12T07:19:42.251Z,56.70
2023-10-12T07:22:16.716Z,56.70
2023-10-12T07:24:45.681Z,56.60
2023-10-12T07:27:19.132Z,56.70
2023-10-12T07:29:49.074Z,56.70
2023-10-12T07:32:32.011Z,56.60
2023-10-12T07:35:08.234Z,56.70
2023-10-12T07:37:42.448Z,56.60
2023-10-12T07:40:20.364Z,56.60
2023-10-12T07:42:49.346Z,56.60
2023-10-12T07:45:18.495Z,56.60
2023-10-12T07:48:00.374Z,56.50
2023-10-12T07:50:31.814Z,56.70
2023-10-12T07:53:16.163Z,56.70
2023-10-12T07:55:44.391Z,56.60
2023-10-12T07:58:14.404Z,56.60
2023-10-12T08:00:43.227Z,56.60
2023-10-12T08:03:21.153Z,56.60
2023-10-12T08:06:06.168Z,56.60
2023-10-12T08:08:36.678Z,56.50
2023-10-12T08:11:17.251Z,56.40
2023-10-12T08:13:50.282Z,56.40
2023-10-12T08:16:26.726Z,56.40
2023-10-12T08:19:12.703Z,56.30
2023-10-12T08:21:43.056Z,56.40
2023-10-12T08:24:23.442Z,56.50
2023-10-12T08:26:58.970Z,56.50
2023-10-12T08:29:44.720Z,56.40
2023-10-12T08:32:26.811Z,56.40
2023-10-12T08:35:32.862Z,56.40
2023-10-12T08:38:17.436Z,56.40
2023-10-12T08:41:18.481Z,56.30
2023-10-12T08:43:49.807Z,56.30
2023-10-12T08:46:38.601Z,56.30
2023-10-12T08:49:25.253Z,56.30
2023-10-12T08:52:09.258Z,56.30
2023-10-12T08:54:39.431Z,56.40
2023-10-12T08:57:19.354Z,56.40
2023-10-12T09:00:02.714Z,56.50
2023-10-12T09:02:30.822Z,56.60
2023-10-12T09:05:00.408Z,56.70
2023-10-12T09:07:41.724Z,56.70
2023-10-12T09:10:29.733Z,56.60
2023-10-12T09:12:59.239Z,56.60
2023-10-12T09:15:39.518Z,56.70
2023-10-12T09:18:10.938Z,56.60
2023-10-12T09:20:46.835Z,56.40
2023-10-12T09:23:18.790Z,56.40
2023-10-12T09:26:16.649Z,56.40
2023-10-12T09:29:05.001Z,56.30
2023-10-12T09:31:58.227Z,56.40
2023-10-12T09:34:43.947Z,56.40
2023-10-12T09:37:18.642Z,56.30
2023-10-12T09:39:47.857Z,56.30
2023-10-12T09:42:31.423Z,56.30
2023-10-12T09:45:07.902Z,56.20
2023-10-12T09:47:51.937Z,56.20
2023-10-12T09:50:28.500Z,56.30
2023-10-12T09:53:00.745Z,56.20
2023-10-12T09:55:37.877Z,56.10
2023-10-12T09:58:16.050Z,56.10
2023-10-12T10:01:02.822Z,56.10
2023-10-12T10:03:38.921Z,56.00
2023-10-12T10:06:20.262Z,56.10
2023-10-12T10:09:05.593Z,56.10
2023-10-12T10:11:34.921Z,56.00
2023-10-12T10:14:04.355Z,56.00
2023-10-12T10:16:47.294Z,56.00
2023-10-12T10:19:17.949Z,55.90
2023-10-12T10:21:53.277Z,55.90
2023-10-12T10:24:26.005Z,55.90
2023-10-12T10:26:59.661Z,55.80
2023-10-12T10:29:47.202Z,55.80
2023-10-12T10:32:17.716Z,55.70
2023-10-12T10:34:46.078Z,55.70
2023-10-12T10:37:16.374Z,55.60
2023-10-12T10:39:45.638Z,55.60
2023-10-12T10:42:15.343Z,55.50
2023-10-12T10:44:44.086Z,55.50
2023-10-12T10:47:16.763Z,55.50
2023-10-12T10:49:50.520Z,55.40
2023-10-12T10:52:21.665Z,55.40
2023-10-12T10:55:01.833Z,55.30
2023-10-12T10:57:39.404Z,55.30
2023-10-12T11:00:16.157Z,55.20
2023-10-12T11:02:48.619Z,55.10
2023-10-12T11:05:20.886Z,55.10
2023-10-12T11:07:52.237Z,55.00
2023-10-12T11:10:32.704Z,55.00
2023-10-12T11:13:01.986Z,55.00
2023-10-12T11:15:30.290Z,55.00
2023-10-12T11:17:58.776Z,54.90
2023-10-12T11:20:46.575Z,55.00
2023-10-12T11:23:16.327Z,54.70
2023-10-12T11:25:44.890Z,54.10
2023-10-12T11:28:23.444Z,53.50
2023-10-12T11:30:53.694Z,52.70
2023-10-12T11:33:29.663Z,52.40
2023-10-12T11:36:04.928Z,51.80
2023-10-12T11:38:33.497Z,51.40
2023-10-12T11:41:14.952Z,51.00
2023-10-12T11:43:54.512Z,50.50
2023-10-12T11:46:24.935Z,50.00
2023-10-12T11:49:03.499Z,50.00
2023-10-12T11:51:33.162Z,50.10
2023-10-12T11:54:02.026Z,50.30
2023-10-12T11:56:30.825Z,50.20
2023-10-12T11:58:58.912Z,49.60
2023-10-12T12:01:31.589Z,49.10
2023-10-12T12:04:00.350Z,49.00
2023-10-12T12:06:33.318Z,48.90
2023-10-12T12:09:08.559Z,48.80
2023-10-12T12:11:39.616Z,48.60
2023-10-12T12:14:08.340Z,48.60
2023-10-12T12:16:39.388Z,48.70
2023-10-12T12:19:09.695Z,48.80
2023-10-12T12:21:43.375Z,49.00
2023-10-12T12:24:23.223Z,49.20
2023-10-12T12:26:53.416Z,49.00
2023-10-12T12:29:27.821Z,49.30
2023-10-12T12:32:05.139Z,49.20
2023-10-12T12:34:48.996Z,49.20
2023-10-12T12:37:18.816Z,49.00
2023-10-12T12:40:16.239Z,48.80
2023-10-12T12:42:45.649Z,48.50
2023-10-12T12:45:13.786Z,48.40
2023-10-12T12:47:41.981Z,48.20
2023-10-12T12:50:10.941Z,48.10
2023-10-12T12:52:41.920Z,47.90
2023-10-12T12:55:12.550Z,47.80
2023-10-12T12:57:43.253Z,47.70
2023-10-12T13:00:12.864Z,47.60
2023-10-12T13:02:40.972Z,47.60
2023-10-12T13:05:10.344Z,47.70
2023-10-12T13:07:38.509Z,47.80
2023-10-12T13:10:12.393Z,47.90
2023-10-12T13:12:45.091Z,48.00
2023-10-12T13:15:16.000Z,48.10
2023-10-12T13:17:44.177Z,48.10
2023-10-12T13:20:22.404Z,48.10
2023-10-12T13:22:51.151Z,48.10
2023-10-12T13:25:20.286Z,48.20
2023-10-12T13:27:50.906Z,48.30
2023-10-12T13:30:19.040Z,48.30
2023-10-12T13:32:49.881Z,48.40
2023-10-12T13:35:30.130Z,48.30
2023-10-12T13:38:03.996Z,48.40
2023-10-12T13:40:32.263Z,48.40
2023-10-12T13:43:15.991Z,48.50
2023-10-12T13:45:49.711Z,48.40
2023-10-12T13:48:21.798Z,48.60
2023-10-12T13:50:53.634Z,48.60
2023-10-12T13:53:24.314Z,48.60
2023-10-12T13:55:54.841Z,48.60
2023-10-12T13:58:26.244Z,48.70
2023-10-12T14:00:55.938Z,48.70
2023-10-12T14:03:30.042Z,48.70
2023-10-12T14:05:59.132Z,48.80
2023-10-12T14:08:29.640Z,48.90
2023-10-12T14:11:04.344Z,49.00
2023-10-12T14:13:34.136Z,48.90
2023-10-12T14:16:02.756Z,49.00
2023-10-12T14:18:32.233Z,49.10
2023-10-12T14:21:01.189Z,49.10
2023-10-12T14:23:30.853Z,49.10
2023-10-12T14:25:59.445Z,49.20
2023-10-12T14:28:32.834Z,49.10
2023-10-12T14:31:02.543Z,49.20
2023-10-12T14:33:32.752Z,49.20
2023-10-12T14:36:00.892Z,49.20
2023-10-12T14:38:33.494Z,49.30
2023-10-12T14:41:06.778Z,49.30
2023-10-12T14:43:36.459Z,49.30
2023-10-12T14:46:06.694Z,49.30
2023-10-12T14:48:35.149Z,49.30
2023-10-12T14:51:08.702Z,49.40
2023-10-12T14:53:37.231Z,49.40
2023-10-12T14:56:05.976Z,49.40
2023-10-12T14:58:35.620Z,49.40
2023-10-12T15:01:14.852Z,49.40
2023-10-12T15:03:46.371Z,49.40
2023-10-12T15:06:14.776Z,49.50
2023-10-12T15:08:43.964Z,49.50
2023-10-12T15:11:12.186Z,49.40
2023-10-12T15:13:42.033Z,49.40
2023-10-12T15:16:12.554Z,49.30
2023-10-12T15:18:42.738Z,49.20
2023-10-12T15:23:45.966Z,49.20
2023-10-12T15:26:17.575Z,49.10
2023-10-12T15:28:48.580Z,49.10
2023-10-12T15:31:23.427Z,49.10
2023-10-12T15:33:52.338Z,49.20
2023-10-12T15:36:20.772Z,49.30
2023-10-12T15:38:48.974Z,49.30
2023-10-12T15:41:17.094Z,49.40
2023-10-12T15:43:45.194Z,49.60
2023-10-12T15:46:13.459Z,49.60
2023-10-12T15:48:43.083Z,49.70
2023-10-12T15:51:18.798Z,49.80
2023-10-12T15:53:47.142Z,49.90
2023-10-12T15:56:17.322Z,49.90
2023-10-12T15:58:47.436Z,50.00
2023-10-12T16:01:16.424Z,50.10
2023-10-12T16:03:46.135Z,50.10
2023-10-12T16:06:15.664Z,50.20
2023-10-12T16:08:45.548Z,50.20
2023-10-12T16:11:17.797Z,50.30
2023-10-12T16:13:46.833Z,50.40
2023-10-12T16:16:16.165Z,50.40
2023-10-12T16:18:46.219Z,50.50
2023-10-12T16:21:17.453Z,50.60
2023-10-12T16:23:46.888Z,50.60
2023-10-12T16:26:16.163Z,50.70
2023-10-12T16:28:44.583Z,50.70
2023-10-12T16:31:13.216Z,50.80
2023-10-12T16:33:41.950Z,50.90
2023-10-12T16:36:13.193Z,50.90
2023-10-12T16:38:41.829Z,51.00
2023-10-12T16:41:10.211Z,51.00
2023-10-12T16:43:39.534Z,51.10
2023-10-12T16:46:08.636Z,51.20
2023-10-12T16:48:37.063Z,51.20
2023-10-12T16:51:08.710Z,51.30
2023-10-12T16:53:38.499Z,51.50
2023-10-12T16:56:11.632Z,51.50
2023-10-12T16:58:41.392Z,51.50
2023-10-12T17:01:11.283Z,51.60
2023-10-12T17:03:40.955Z,51.70
2023-10-12T17:06:09.379Z,51.80
2023-10-12T17:08:42.199Z,51.90
2023-10-12T17:11:10.551Z,51.90
2023-10-12T17:13:38.629Z,52.10
2023-10-12T17:16:06.915Z,52.70
2023-10-12T17:18:36.480Z,52.10
2023-10-12T17:21:04.912Z,52.20
2023-10-12T17:23:32.989Z,52.30
2023-10-12T17:26:02.669Z,52.30
2023-10-12T17:28:34.582Z,52.40
2023-10-12T17:31:08.429Z,52.40
2023-10-12T17:33:37.429Z,52.50
2023-10-12T17:36:12.333Z,52.50
2023-10-12T17:38:40.650Z,52.60
2023-10-12T17:41:10.677Z,52.60
2023-10-12T17:43:41.763Z,52.70
2023-10-12T17:46:10.380Z,52.80
2023-10-12T17:48:38.512Z,52.80
2023-10-12T17:51:14.193Z,52.90
2023-10-12T17:53:42.266Z,52.90
2023-10-12T17:56:13.426Z,52.90
2023-10-12T17:58:41.553Z,52.90
2023-10-12T18:01:09.955Z,53.00
2023-10-12T18:03:39.604Z,53.10
2023-10-12T18:06:11.717Z,53.10
2023-10-12T18:08:41.306Z,53.20
2023-10-12T18:11:14.656Z,53.10
2023-10-12T18:13:45.673Z,53.20
2023-10-12T18:16:15.591Z,53.30
2023-10-12T18:18:44.278Z,53.30
2023-10-12T18:21:12.462Z,53.30
2023-10-12T18:23:41.565Z,53.40
2023-10-12T18:26:11.264Z,53.50
2023-10-12T18:28:39.793Z,53.50
2023-10-12T18:31:11.522Z,53.60
2023-10-12T18:33:40.866Z,53.70
2023-10-12T18:36:10.980Z,53.70
2023-10-12T18:38:41.099Z,53.80
2023-10-12T18:41:10.817Z,53.80
2023-10-12T18:43:39.809Z,53.80
2023-10-12T18:46:09.495Z,54.40
2023-10-12T18:48:38.097Z,53.90
2023-10-12T18:51:10.663Z,53.90
2023-10-12T18:53:41.492Z,54.00
2023-10-12T18:56:11.482Z,54.00
2023-10-12T18:58:40.763Z,54.00
2023-10-12T19:01:14.337Z,54.10
2023-10-12T19:03:44.324Z,54.10
2023-10-12T19:06:14.402Z,54.20
2023-10-12T19:08:44.860Z,54.20
2023-10-12T19:11:13.424Z,54.20
2023-10-12T19:13:44.224Z,54.20
2023-10-12T19:16:15.032Z,54.30
2023-10-12T19:18:43.687Z,54.30
2023-10-12T19:21:11.933Z,54.40
2023-10-12T19:23:40.050Z,54.40
2023-10-12T19:26:09.330Z,54.40
2023-10-12T19:28:37.607Z,54.40
2023-10-12T19:31:09.820Z,54.50
2023-10-12T19:33:42.781Z,54.60
2023-10-12T19:36:11.861Z,54.50
2023-10-12T19:38:40.988Z,54.60
2023-10-12T19:41:10.660Z,54.70
2023-10-12T19:43:39.281Z,54.70
2023-10-12T19:46:11.022Z,54.70
2023-10-12T19:48:41.865Z,54.70
2023-10-12T19:51:13.553Z,54.70
2023-10-12T19:53:43.252Z,54.80
2023-10-12T19:56:13.730Z,54.90
2023-10-12T19:58:41.841Z,54.80
2023-10-12T20:01:12.292Z,54.90
2023-10-12T20:03:46.287Z,55.00
2023-10-12T20:06:14.995Z,55.00
2023-10-12T20:08:44.421Z,55.00
2023-10-12T20:11:13.237Z,55.10
2023-10-12T20:13:41.630Z,55.10
2023-10-12T20:16:12.667Z,55.10
2023-10-12T20:18:44.137Z,55.20
2023-10-12T20:21:12.261Z,55.20
2023-10-12T20:23:42.470Z,55.20
2023-10-12T20:26:12.040Z,55.20
2023-10-12T20:28:40.538Z,55.40
2023-10-12T20:31:11.370Z,55.40
2023-10-12T20:33:42.697Z,55.40
2023-10-12T20:36:10.765Z,55.40
2023-10-12T20:38:40.429Z,55.50
2023-10-12T20:41:08.732Z,55.50
2023-10-12T20:43:36.958Z,55.60
2023-10-12T20:46:10.792Z,55.60
2023-10-12T20:48:39.403Z,55.70
2023-10-12T20:51:09.559Z,55.70
2023-10-12T20:53:38.082Z,55.70
2023-10-12T20:56:27.640Z,55.70
2023-10-12T20:59:10.562Z,55.70
2023-10-12T21:01:48.100Z,55.70
2023-10-12T21:04:19.308Z,55.70
2023-10-12T21:06:49.584Z,55.80
2023-10-12T21:09:21.672Z,55.80
2023-10-12T21:11:57.854Z,55.80
2023-10-12T21:14:27.546Z,55.90
2023-10-12T21:16:58.037Z,55.90
2023-10-12T21:19:36.110Z,55.90
2023-10-12T21:22:09.136Z,56.00
2023-10-12T21:24:39.592Z,56.00
2023-10-12T21:27:10.797Z,56.00
2023-10-12T21:29:40.361Z,56.00
2023-10-12T21:32:11.207Z,56.00
2023-10-12T21:34:40.035Z,56.00
2023-10-12T21:37:12.979Z,56.00
2023-10-12T21:39:44.657Z,56.00
2023-10-12T21:42:14.517Z,56.10
2023-10-12T21:44:43.805Z,56.10
2023-10-12T21:47:12.984Z,56.20
2023-10-12T21:49:41.724Z,56.10
2023-10-12T21:52:11.242Z,56.20
2023-10-12T21:54:39.320Z,56.30
2023-10-12T21:57:10.494Z,56.30
2023-10-12T21:59:39.817Z,56.20
2023-10-12T22:02:17.378Z,56.20
2023-10-12T22:04:47.211Z,56.20
2023-10-12T22:07:17.952Z,56.20
2023-10-12T22:09:47.369Z,56.30
2023-10-12T22:12:20.722Z,56.30
2023-10-12T22:14:52.266Z,56.40
2023-10-12T22:17:27.151Z,56.40
2023-10-12T22:19:57.178Z,56.40
2023-10-12T22:22:28.489Z,56.40
2023-10-12T22:24:57.753Z,56.30
2023-10-12T22:27:28.364Z,56.40
2023-10-12T22:29:57.713Z,56.40
2023-10-12T22:32:26.071Z,56.50
2023-10-12T22:34:54.602Z,56.60
2023-10-12T22:37:23.241Z,56.50
2023-10-12T22:39:52.736Z,56.50
2023-10-12T22:42:20.837Z,56.60
2023-10-12T22:44:48.989Z,56.70
2023-10-12T22:49:48.096Z,56.70
2023-10-12T22:52:16.378Z,56.70
2023-10-12T22:54:44.476Z,56.70
2023-10-12T22:57:14.524Z,56.70
2023-10-12T22:59:42.970Z,56.80
2023-10-12T23:02:12.960Z,56.80
2023-10-12T23:04:41.444Z,56.80
2023-10-12T23:07:10.327Z,56.80
2023-10-12T23:09:38.476Z,56.80
2023-10-12T23:12:12.571Z,56.80
2023-10-12T23:14:46.044Z,56.80
2023-10-12T23:17:15.227Z,56.80
2023-10-12T23:19:45.919Z,56.90
2023-10-12T23:22:31.682Z,56.80
2023-10-12T23:25:02.351Z,56.90
2023-10-12T23:27:33.984Z,56.80
2023-10-12T23:30:12.767Z,56.80
2023-10-12T23:32:41.608Z,56.80
2023-10-12T23:35:19.351Z,56.90
2023-10-12T23:38:08.324Z,56.80
2023-10-12T23:40:48.410Z,56.80
2023-10-12T23:43:18.589Z,56.80
2023-10-12T23:45:59.496Z,56.80
2023-10-12T23:48:28.287Z,56.80
2023-10-12T23:51:04.564Z,56.80
2023-10-12T23:53:38.595Z,56.80
2023-10-12T23:56:10.459Z,56.70
2023-10-12T23:58:38.699Z,56.70
